Saint Hilaire, Minnesota
Current Conditions -  °F | °C
As of 7:35 PM on Wednesday 22 Oct 2014 (Local Time) from KTVF Reporting Station
Overcast Overcast  
Wind Chill: 55°   Ceiling: 2800
Heat Index: 55°   Visibility: 10mi
Dew Point: 52°   Wind: 7mph
Humidity: 88%   Direction: 190°S
Pressure: 29.86"   Gusts: NA
Location:  48.01°N, 96.21°W
Report Text: KTVF 230035Z AUTO 19006KT 10SM BKN028 OVC033 13/11 A2986 RMK AO1 P0001
Loading
Personal Weather Stations






























Interactive Weather Map
Tropical Storm Tracking
New forecast layout! Learn more

10-Day Weather Forecast

Advertisements
Track Severe Weather on mobile